createdAt,value
2018-09-15T00:00:12.493Z,1018.01
2018-09-15T00:01:12.447Z,1018.00
2018-09-15T00:02:12.402Z,1017.99
2018-09-15T00:03:12.355Z,1018.03
2018-09-15T00:04:12.318Z,1018.03
2018-09-15T00:05:12.272Z,1018.04
2018-09-15T00:06:12.223Z,1018.03
2018-09-15T00:07:12.177Z,1018.01
2018-09-15T00:08:12.132Z,1018.00
2018-09-15T00:09:12.090Z,1017.98
2018-09-15T00:10:12.045Z,1017.99
2018-09-15T00:11:11.998Z,1017.97
2018-09-15T00:12:11.957Z,1017.99
2018-09-15T00:13:11.914Z,1017.99
2018-09-15T00:14:11.865Z,1017.95
2018-09-15T00:15:11.822Z,1017.91
2018-09-15T00:16:11.797Z,1017.95
2018-09-15T00:17:11.730Z,1017.93
2018-09-15T00:18:11.688Z,1017.94
2018-09-15T00:19:11.643Z,1017.90
2018-09-15T00:20:11.596Z,1017.90
2018-09-15T00:21:11.554Z,1017.91
2018-09-15T00:22:11.508Z,1017.95
2018-09-15T00:23:11.591Z,1017.94
2018-09-15T00:24:11.424Z,1017.94
2018-09-15T00:25:11.372Z,1017.91
2018-09-15T00:26:11.330Z,1017.89
2018-09-15T00:27:11.285Z,1017.89
2018-09-15T00:28:11.245Z,1017.87
2018-09-15T00:29:11.191Z,1017.90
2018-09-15T00:30:11.157Z,1017.87
2018-09-15T00:31:11.102Z,1017.88
2018-09-15T00:32:11.066Z,1017.90
2018-09-15T00:33:11.013Z,1017.94
2018-09-15T00:34:10.972Z,1017.93
2018-09-15T00:35:10.926Z,1017.95
2018-09-15T00:36:10.878Z,1017.94
2018-09-15T00:37:10.838Z,1017.93
2018-09-15T00:38:10.792Z,1017.91
2018-09-15T00:39:10.744Z,1017.90
2018-09-15T00:40:10.703Z,1017.88
2018-09-15T00:41:10.658Z,1017.89
2018-09-15T00:42:10.613Z,1017.87
2018-09-15T00:43:10.573Z,1017.83
2018-09-15T00:44:10.521Z,1017.86
2018-09-15T00:45:10.475Z,1017.88
2018-09-15T00:46:10.427Z,1017.83
2018-09-15T00:47:10.383Z,1017.84
2018-09-15T00:48:10.337Z,1017.87
2018-09-15T00:49:10.293Z,1017.85
2018-09-15T00:50:10.253Z,1017.93
2018-09-15T00:51:10.204Z,1017.92
2018-09-15T00:52:10.159Z,1017.92
2018-09-15T00:53:10.115Z,1017.96
2018-09-15T00:54:10.068Z,1017.95
2018-09-15T00:55:10.025Z,1017.99
2018-09-15T00:56:09.981Z,1017.99
2018-09-15T00:57:09.937Z,1017.94
2018-09-15T00:58:09.886Z,1017.96
2018-09-15T00:59:09.843Z,1018.02
2018-09-15T01:00:09.800Z,1018.03
2018-09-15T01:01:09.754Z,1018.03
2018-09-15T01:02:09.708Z,1018.00
2018-09-15T01:03:09.664Z,1018.02
2018-09-15T01:04:09.619Z,1017.99
2018-09-15T01:05:09.572Z,1017.98
2018-09-15T01:06:09.534Z,1017.97
2018-09-15T01:07:09.488Z,1017.96
2018-09-15T01:08:09.439Z,1017.91
2018-09-15T01:09:09.398Z,1017.92
2018-09-15T01:10:09.347Z,1017.91
2018-09-15T01:11:09.304Z,1017.96
2018-09-15T01:12:09.276Z,1017.91
2018-09-15T01:13:09.216Z,1017.94
2018-09-15T01:14:09.190Z,1017.94
2018-09-15T01:15:09.122Z,1017.92
2018-09-15T01:16:09.080Z,1017.94
2018-09-15T01:17:09.034Z,1017.92
2018-09-15T01:18:08.986Z,1018.01
2018-09-15T01:19:08.951Z,1018.00
2018-09-15T01:20:08.924Z,1018.03
2018-09-15T01:21:08.855Z,1018.00
2018-09-15T01:22:08.808Z,1018.02
2018-09-15T01:23:08.764Z,1018.01
2018-09-15T01:24:08.720Z,1018.00
2018-09-15T01:25:10.176Z,1018.08
2018-09-15T01:26:08.645Z,1018.05
2018-09-15T01:27:08.582Z,1018.04
2018-09-15T01:28:08.542Z,1017.99
2018-09-15T01:29:08.501Z,1017.97
2018-09-15T01:30:08.458Z,1017.99
2018-09-15T01:31:08.405Z,1017.99
2018-09-15T01:32:08.360Z,1018.02
2018-09-15T01:33:08.313Z,1017.99
2018-09-15T01:34:08.267Z,1018.00
2018-09-15T01:35:08.223Z,1018.00
2018-09-15T01:36:08.178Z,1017.95
2018-09-15T01:37:08.136Z,1017.96
2018-09-15T01:38:08.089Z,1017.97
2018-09-15T01:39:08.047Z,1017.93
2018-09-15T01:40:08.001Z,1017.94
2018-09-15T01:41:07.954Z,1017.92
2018-09-15T01:42:07.910Z,1017.98
2018-09-15T01:43:07.866Z,1017.91
2018-09-15T01:44:07.821Z,1017.89
2018-09-15T01:45:07.779Z,1017.90
2018-09-15T01:46:07.737Z,1017.91
2018-09-15T01:47:07.691Z,1017.89
2018-09-15T01:48:07.653Z,1017.91
2018-09-15T01:49:07.602Z,1017.94
2018-09-15T01:50:07.551Z,1017.89
2018-09-15T01:51:07.509Z,1017.88
2018-09-15T01:52:07.462Z,1017.90
2018-09-15T01:53:07.423Z,1017.95
2018-09-15T01:54:07.372Z,1017.92
2018-09-15T01:55:07.329Z,1017.90
2018-09-15T01:56:07.282Z,1017.90
2018-09-15T01:57:07.237Z,1017.94
2018-09-15T01:58:07.193Z,1017.91
2018-09-15T01:59:07.149Z,1017.92
2018-09-15T02:00:07.109Z,1017.90
2018-09-15T02:01:07.062Z,1017.90
2018-09-15T02:02:07.016Z,1017.87
2018-09-15T02:03:06.973Z,1017.90
2018-09-15T02:04:06.937Z,1017.89
2018-09-15T02:05:06.883Z,1017.87
2018-09-15T02:06:06.835Z,1017.87
2018-09-15T02:07:06.790Z,1017.89
2018-09-15T02:08:06.749Z,1017.86
2018-09-15T02:09:06.701Z,1017.89
2018-09-15T02:10:06.662Z,1017.88
2018-09-15T02:11:06.613Z,1017.86
2018-09-15T02:12:06.612Z,1017.84
2018-09-15T02:13:06.621Z,1017.85
2018-09-15T02:14:06.550Z,1017.87
2018-09-15T02:15:06.546Z,1017.89
2018-09-15T02:16:06.388Z,1017.94
2018-09-15T02:17:06.344Z,1017.94
2018-09-15T02:18:06.300Z,1017.96
2018-09-15T02:19:06.261Z,1017.96
2018-09-15T02:20:06.210Z,1017.94
2018-09-15T02:21:06.168Z,1017.98
2018-09-15T02:22:06.122Z,1018.03
2018-09-15T02:23:06.119Z,1018.00
2018-09-15T02:24:06.036Z,1018.01
2018-09-15T02:25:05.986Z,1018.07
2018-09-15T02:26:10.498Z,1018.06
2018-09-15T02:27:05.897Z,1018.05
2018-09-15T02:28:05.853Z,1018.03
2018-09-15T02:29:05.936Z,1018.01
2018-09-15T02:30:05.764Z,1018.00
2018-09-15T02:31:05.722Z,1018.01
2018-09-15T02:32:05.676Z,1018.02
2018-09-15T02:33:05.635Z,1018.02
2018-09-15T02:34:05.585Z,1018.01
2018-09-15T02:35:05.542Z,1018.00
2018-09-15T02:36:05.498Z,1017.97
2018-09-15T02:37:05.457Z,1017.97
2018-09-15T02:38:05.405Z,1017.99
2018-09-15T02:39:05.363Z,1018.02
2018-09-15T02:40:05.335Z,1018.00
2018-09-15T02:41:05.272Z,1018.01
2018-09-15T02:42:05.225Z,1017.99
2018-09-15T02:43:05.189Z,1018.03
2018-09-15T02:44:05.138Z,1018.00
2018-09-15T02:45:05.092Z,1018.00
2018-09-15T02:46:05.048Z,1017.97
2018-09-15T02:47:05.001Z,1017.97
2018-09-15T02:48:04.958Z,1018.01
2018-09-15T02:49:04.914Z,1017.99
2018-09-15T02:50:04.868Z,1017.99
2018-09-15T02:51:04.823Z,1018.00
2018-09-15T02:52:04.778Z,1017.98
2018-09-15T02:53:04.736Z,1018.01
2018-09-15T02:54:04.686Z,1018.02
2018-09-15T02:55:04.645Z,1018.05
2018-09-15T02:56:04.599Z,1018.01
2018-09-15T02:57:04.558Z,1018.02
2018-09-15T02:58:04.512Z,1018.03
2018-09-15T02:59:04.464Z,1018.07
2018-09-15T03:00:04.425Z,1018.06
2018-09-15T03:01:04.377Z,1018.01
2018-09-15T03:02:04.330Z,1018.03
2018-09-15T03:03:04.297Z,1018.06
2018-09-15T03:04:04.239Z,1018.09
2018-09-15T03:05:04.199Z,1018.07
2018-09-15T03:06:04.150Z,1018.11
2018-09-15T03:07:04.110Z,1018.08
2018-09-15T03:08:04.061Z,1018.09
2018-09-15T03:09:04.015Z,1018.12
2018-09-15T03:10:03.970Z,1018.11
2018-09-15T03:11:03.931Z,1018.11
2018-09-15T03:12:03.887Z,1018.13
2018-09-15T03:13:03.839Z,1018.15
2018-09-15T03:14:03.792Z,1018.13
2018-09-15T03:15:03.745Z,1018.11
2018-09-15T03:16:03.709Z,1018.15
2018-09-15T03:17:03.659Z,1018.13
2018-09-15T03:18:03.615Z,1018.15
2018-09-15T03:19:03.569Z,1018.15
2018-09-15T03:20:03.524Z,1018.12
2018-09-15T03:21:03.478Z,1018.11
2018-09-15T03:22:03.432Z,1018.15
2018-09-15T03:23:03.388Z,1018.10
2018-09-15T03:24:03.343Z,1018.08
2018-09-15T03:25:03.302Z,1018.13
2018-09-15T03:26:03.260Z,1018.14
2018-09-15T03:27:03.210Z,1018.15
2018-09-15T03:28:03.167Z,1018.13
2018-09-15T03:29:03.120Z,1018.15
2018-09-15T03:30:03.076Z,1018.12
2018-09-15T03:31:03.025Z,1018.12
2018-09-15T03:32:02.983Z,1018.13
2018-09-15T03:33:02.936Z,1018.13
2018-09-15T03:34:02.892Z,1018.14
2018-09-15T03:35:02.845Z,1018.12
2018-09-15T03:36:02.802Z,1018.12
2018-09-15T03:37:02.756Z,1018.12
2018-09-15T03:38:02.713Z,1018.14
2018-09-15T03:39:02.665Z,1018.14
2018-09-15T03:40:02.622Z,1018.15
2018-09-15T03:41:02.577Z,1018.18
2018-09-15T03:42:02.691Z,1018.17
2018-09-15T03:43:02.486Z,1018.16
2018-09-15T03:44:02.441Z,1018.14
2018-09-15T03:45:02.398Z,1018.16
2018-09-15T03:46:02.357Z,1018.13
2018-09-15T03:47:02.305Z,1018.13
2018-09-15T03:48:02.264Z,1018.19
2018-09-15T03:49:02.217Z,1018.15
2018-09-15T03:50:02.172Z,1018.20
2018-09-15T03:51:02.131Z,1018.17
2018-09-15T03:52:02.083Z,1018.17
2018-09-15T03:53:02.035Z,1018.19
2018-09-15T03:54:01.989Z,1018.15
2018-09-15T03:55:01.953Z,1018.14
2018-09-15T03:56:01.908Z,1018.10
2018-09-15T03:57:01.856Z,1018.11
2018-09-15T03:58:01.813Z,1018.11
2018-09-15T03:59:01.772Z,1018.11
2018-09-15T04:00:01.796Z,1018.10
2018-09-15T04:01:01.677Z,1018.12
2018-09-15T04:02:01.629Z,1018.15
2018-09-15T04:03:01.584Z,1018.12
2018-09-15T04:04:01.539Z,1018.14
2018-09-15T04:05:01.494Z,1018.18
2018-09-15T04:06:01.448Z,1018.20
2018-09-15T04:07:01.406Z,1018.25
2018-09-15T04:08:01.360Z,1018.25
2018-09-15T04:09:01.318Z,1018.32
2018-09-15T04:10:01.275Z,1018.31
2018-09-15T04:11:01.222Z,1018.28
2018-09-15T04:12:01.180Z,1018.38
2018-09-15T04:13:01.138Z,1018.33
2018-09-15T04:14:01.088Z,1018.32
2018-09-15T04:15:01.044Z,1018.33
2018-09-15T04:16:01.000Z,1018.32
2018-09-15T04:17:00.952Z,1018.32
2018-09-15T04:18:00.911Z,1018.35
2018-09-15T04:19:00.922Z,1018.38
2018-09-15T04:20:00.818Z,1018.37
2018-09-15T04:21:00.772Z,1018.37
2018-09-15T04:22:00.731Z,1018.36
2018-09-15T04:23:00.683Z,1018.31
2018-09-15T04:24:00.637Z,1018.31
2018-09-15T04:25:00.593Z,1018.34
2018-09-15T04:26:00.547Z,1018.35
2018-09-15T04:27:00.504Z,1018.36
2018-09-15T04:28:00.460Z,1018.36
2018-09-15T04:29:00.412Z,1018.40
2018-09-15T04:30:00.367Z,1018.41
2018-09-15T04:31:00.323Z,1018.39
2018-09-15T04:32:00.282Z,1018.41
2018-09-15T04:33:00.232Z,1018.43
2018-09-15T04:34:00.187Z,1018.42
2018-09-15T04:35:00.141Z,1018.44
2018-09-15T04:36:00.096Z,1018.42
2018-09-15T04:37:00.056Z,1018.41
2018-09-15T04:38:00.008Z,1018.42
2018-09-15T04:38:59.962Z,1018.42
2018-09-15T04:39:59.920Z,1018.42
2018-09-15T04:40:59.870Z,1018.45
2018-09-15T04:41:59.826Z,1018.42
2018-09-15T04:42:59.789Z,1018.44
2018-09-15T04:43:59.738Z,1018.43
2018-09-15T04:44:59.694Z,1018.44
2018-09-15T04:45:59.646Z,1018.46
2018-09-15T04:46:59.603Z,1018.43
2018-09-15T04:47:59.555Z,1018.47
2018-09-15T04:48:59.522Z,1018.46
2018-09-15T04:49:59.464Z,1018.47
2018-09-15T04:50:59.424Z,1018.47
2018-09-15T04:51:59.374Z,1018.49
2018-09-15T04:52:59.330Z,1018.47
2018-09-15T04:53:59.285Z,1018.49
2018-09-15T04:54:59.240Z,1018.49
2018-09-15T04:55:59.196Z,1018.47
2018-09-15T04:56:59.150Z,1018.48
2018-09-15T04:57:59.107Z,1018.48
2018-09-15T04:58:59.061Z,1018.48
2018-09-15T04:59:59.015Z,1018.46
2018-09-15T05:00:58.971Z,1018.47
2018-09-15T05:01:58.934Z,1018.48
2018-09-15T05:02:58.879Z,1018.46
2018-09-15T05:03:58.834Z,1018.45
2018-09-15T05:04:58.788Z,1018.47
2018-09-15T05:05:58.744Z,1018.48
2018-09-15T05:06:58.699Z,1018.48
2018-09-15T05:07:58.659Z,1018.53
2018-09-15T05:08:58.609Z,1018.55
2018-09-15T05:09:58.571Z,1018.53
2018-09-15T05:10:58.521Z,1018.51
2018-09-15T05:11:58.488Z,1018.56
2018-09-15T05:12:58.543Z,1018.53
2018-09-15T05:13:58.387Z,1018.60
2018-09-15T05:14:58.349Z,1018.59
2018-09-15T05:15:58.298Z,1018.58
2018-09-15T05:16:58.251Z,1018.58
2018-09-15T05:17:58.206Z,1018.58
2018-09-15T05:18:58.159Z,1018.59
2018-09-15T05:19:58.114Z,1018.64
2018-09-15T05:20:58.077Z,1018.63
2018-09-15T05:21:58.025Z,1018.66
2018-09-15T05:22:57.987Z,1018.65
2018-09-15T05:23:57.942Z,1018.64
2018-09-15T05:24:57.895Z,1018.63
2018-09-15T05:25:57.846Z,1018.64
2018-09-15T05:26:57.801Z,1018.65
2018-09-15T05:27:57.755Z,1018.61
2018-09-15T05:28:57.710Z,1018.60
2018-09-15T05:29:57.669Z,1018.57
2018-09-15T05:30:57.818Z,1018.57
2018-09-15T05:31:57.579Z,1018.59
2018-09-15T05:32:57.530Z,1018.60
2018-09-15T05:33:57.485Z,1018.65
2018-09-15T05:34:57.439Z,1018.63
2018-09-15T05:35:57.395Z,1018.67
2018-09-15T05:36:57.350Z,1018.70
2018-09-15T05:37:57.308Z,1018.67
2018-09-15T05:38:57.263Z,1018.71
2018-09-15T05:39:57.224Z,1018.70
2018-09-15T05:40:57.179Z,1018.70
2018-09-15T05:41:57.127Z,1018.76
2018-09-15T05:42:57.088Z,1018.76
2018-09-15T05:43:57.036Z,1018.78
2018-09-15T05:44:56.999Z,1018.77
2018-09-15T05:45:56.953Z,1018.78
2018-09-15T05:46:56.904Z,1018.77
2018-09-15T05:47:56.858Z,1018.82
2018-09-15T05:48:56.812Z,1018.85
2018-09-15T05:49:56.766Z,1018.87
2018-09-15T05:50:56.720Z,1018.90
2018-09-15T05:51:56.676Z,1018.92
2018-09-15T05:52:56.632Z,1018.90
2018-09-15T05:53:56.585Z,1018.91
2018-09-15T05:54:56.539Z,1018.91
2018-09-15T05:55:56.535Z,1018.93
2018-09-15T05:56:56.452Z,1018.93
2018-09-15T05:57:56.408Z,1018.95
2018-09-15T05:58:56.359Z,1018.94
2018-09-15T05:59:56.317Z,1018.97
2018-09-15T06:00:56.270Z,1018.94
2018-09-15T06:01:56.235Z,1019.03
2018-09-15T06:02:56.180Z,1019.01
2018-09-15T06:03:56.138Z,1019.06
2018-09-15T06:04:56.091Z,1019.07
2018-09-15T06:05:56.047Z,1019.08
2018-09-15T06:06:56.092Z,1019.08
2018-09-15T06:07:55.961Z,1019.09
2018-09-15T06:08:55.911Z,1019.07
2018-09-15T06:09:55.871Z,1019.08
2018-09-15T06:10:55.824Z,1019.16
2018-09-15T06:11:55.778Z,1019.12
2018-09-15T06:12:55.736Z,1019.13
2018-09-15T06:13:55.690Z,1019.11
2018-09-15T06:14:55.644Z,1019.12
2018-09-15T06:15:55.598Z,1019.10
2018-09-15T06:16:55.554Z,1019.16
2018-09-15T06:17:55.508Z,1019.13
2018-09-15T06:18:55.465Z,1019.15
2018-09-15T06:19:55.425Z,1019.14
2018-09-15T06:20:55.376Z,1019.17
2018-09-15T06:21:55.330Z,1019.19
2018-09-15T06:22:55.286Z,1019.18
2018-09-15T06:23:55.241Z,1019.17
2018-09-15T06:24:55.199Z,1019.27
2018-09-15T06:25:55.151Z,1019.27
2018-09-15T06:26:55.155Z,1019.31
2018-09-15T06:27:55.061Z,1019.34
2018-09-15T06:28:55.018Z,1019.40
2018-09-15T06:29:54.990Z,1019.41
2018-09-15T06:30:54.982Z,1019.40
2018-09-15T06:31:54.885Z,1019.38
2018-09-15T06:32:54.841Z,1019.37
2018-09-15T06:33:54.796Z,1019.40
2018-09-15T06:34:54.752Z,1019.43
2018-09-15T06:35:54.705Z,1019.52
2018-09-15T06:36:54.663Z,1019.51
2018-09-15T06:37:54.622Z,1019.55
2018-09-15T06:38:54.574Z,1019.55
2018-09-15T06:39:54.529Z,1019.56
2018-09-15T06:40:54.484Z,1019.61
2018-09-15T06:41:54.439Z,1019.63
2018-09-15T06:42:54.394Z,1019.59
2018-09-15T06:43:54.362Z,1019.58
2018-09-15T06:44:54.306Z,1019.55
2018-09-15T06:45:54.300Z,1019.55
2018-09-15T06:46:54.216Z,1019.59
2018-09-15T06:47:54.172Z,1019.62
2018-09-15T06:48:54.129Z,1019.58
2018-09-15T06:49:54.088Z,1019.55
2018-09-15T06:50:54.039Z,1019.64
2018-09-15T06:51:53.998Z,1019.60
2018-09-15T06:52:53.953Z,1019.59
2018-09-15T06:53:53.907Z,1019.58
2018-09-15T06:54:53.864Z,1019.55
2018-09-15T06:55:53.821Z,1019.54
2018-09-15T06:56:53.773Z,1019.52
2018-09-15T06:57:53.731Z,1019.47
2018-09-15T06:58:53.685Z,1019.49
2018-09-15T06:59:53.647Z,1019.50
2018-09-15T07:00:53.606Z,1019.53
2018-09-15T07:01:53.555Z,1019.51
2018-09-15T07:02:53.509Z,1019.51
2018-09-15T07:03:53.467Z,1019.48
2018-09-15T07:04:53.422Z,1019.47
2018-09-15T07:05:53.377Z,1019.51
2018-09-15T07:06:53.372Z,1019.55
2018-09-15T07:07:53.294Z,1019.58
2018-09-15T07:08:53.251Z,1019.61
2018-09-15T07:09:53.205Z,1019.68
2018-09-15T07:10:53.161Z,1019.74
2018-09-15T07:11:53.124Z,1019.71
2018-09-15T07:12:53.079Z,1019.83
2018-09-15T07:13:53.030Z,1019.83
2018-09-15T07:14:52.989Z,1019.77
2018-09-15T07:15:52.942Z,1019.80
2018-09-15T07:16:52.901Z,1019.79
2018-09-15T07:17:52.856Z,1019.80
2018-09-15T07:18:52.814Z,1019.83
2018-09-15T07:19:52.776Z,1019.91
2018-09-15T07:20:52.730Z,1019.85
2018-09-15T07:21:52.684Z,1019.86
2018-09-15T07:22:52.641Z,1019.83
2018-09-15T07:23:52.601Z,1019.88
2018-09-15T07:24:52.554Z,1019.93
2018-09-15T07:25:52.569Z,1019.95
2018-09-15T07:26:52.468Z,1019.98
2018-09-15T07:27:52.428Z,1019.97
2018-09-15T07:28:52.388Z,1020.00
2018-09-15T07:29:52.341Z,1020.02
2018-09-15T07:30:52.298Z,1020.03
2018-09-15T07:31:52.340Z,1020.05
2018-09-15T07:32:52.211Z,1020.13
2018-09-15T07:33:52.169Z,1020.09
2018-09-15T07:34:52.172Z,1020.14
2018-09-15T07:35:52.082Z,1020.14
2018-09-15T07:36:52.043Z,1020.13
2018-09-15T07:37:51.997Z,1020.15
2018-09-15T07:38:51.955Z,1020.14
2018-09-15T07:39:51.913Z,1020.16
2018-09-15T07:40:51.872Z,1020.19
2018-09-15T07:41:51.830Z,1020.14
2018-09-15T07:42:51.784Z,1020.15
2018-09-15T07:43:51.741Z,1020.09
2018-09-15T07:44:51.794Z,1020.12
2018-09-15T07:45:51.656Z,1020.15
2018-09-15T07:46:51.624Z,1020.15
2018-09-15T07:47:51.572Z,1020.19
2018-09-15T07:48:51.534Z,1020.18
2018-09-15T07:49:51.494Z,1020.23
2018-09-15T07:50:51.446Z,1020.24
2018-09-15T07:51:51.407Z,1020.25
2018-09-15T07:52:51.362Z,1020.26
2018-09-15T07:53:51.317Z,1020.24
2018-09-15T07:54:51.278Z,1020.23
2018-09-15T07:55:51.233Z,1020.27
2018-09-15T07:56:51.193Z,1020.25
2018-09-15T07:57:51.318Z,1020.29
2018-09-15T07:58:51.108Z,1020.25
2018-09-15T07:59:51.063Z,1020.25
2018-09-15T08:00:51.024Z,1020.27
2018-09-15T08:01:51.000Z,1020.26
2018-09-15T08:02:50.946Z,1020.25
2018-09-15T08:03:50.900Z,1020.24
2018-09-15T08:04:50.857Z,1020.26
2018-09-15T08:05:50.811Z,1020.28
2018-09-15T08:06:50.771Z,1020.29
2018-09-15T08:07:50.729Z,1020.30
2018-09-15T08:08:50.686Z,1020.34
2018-09-15T08:09:50.650Z,1020.36
2018-09-15T08:10:50.622Z,1020.34
2018-09-15T08:11:50.562Z,1020.31
2018-09-15T08:12:50.515Z,1020.35
2018-09-15T08:13:50.477Z,1020.33
2018-09-15T08:14:50.437Z,1020.33
2018-09-15T08:15:50.404Z,1020.35
2018-09-15T08:16:50.352Z,1020.33
2018-09-15T08:17:50.312Z,1020.38
2018-09-15T08:18:50.268Z,1020.41
2018-09-15T08:19:50.223Z,1020.44
2018-09-15T08:20:50.217Z,1020.44
2018-09-15T08:21:50.141Z,1020.47
2018-09-15T08:22:50.094Z,1020.47
2018-09-15T08:23:50.054Z,1020.52
2018-09-15T08:24:50.008Z,1020.48
2018-09-15T08:25:49.984Z,1020.50
2018-09-15T08:26:49.927Z,1020.49
2018-09-15T08:27:49.906Z,1020.47
2018-09-15T08:28:49.840Z,1020.48
2018-09-15T08:29:49.802Z,1020.51
2018-09-15T08:30:49.764Z,1020.54
2018-09-15T08:31:49.741Z,1020.50
2018-09-15T08:32:49.672Z,1020.50
2018-09-15T08:33:49.624Z,1020.48
2018-09-15T08:34:49.583Z,1020.49
2018-09-15T08:35:49.547Z,1020.51
2018-09-15T08:36:49.501Z,1020.54
2018-09-15T08:37:49.456Z,1020.53
2018-09-15T08:38:49.412Z,1020.54
2018-09-15T08:39:49.371Z,1020.54
2018-09-15T08:40:49.329Z,1020.51
2018-09-15T08:41:49.286Z,1020.53
2018-09-15T08:42:49.248Z,1020.53
2018-09-15T08:43:49.200Z,1020.59
2018-09-15T08:44:49.159Z,1020.59
2018-09-15T08:45:49.118Z,1020.57
2018-09-15T08:46:49.073Z,1020.59
2018-09-15T08:47:49.031Z,1020.62
2018-09-15T08:48:48.990Z,1020.65
2018-09-15T08:49:48.946Z,1020.67
2018-09-15T08:50:48.907Z,1020.67
2018-09-15T08:51:48.862Z,1020.70
2018-09-15T08:52:48.821Z,1020.66
2018-09-15T08:53:48.779Z,1020.65
2018-09-15T08:54:48.737Z,1020.66
2018-09-15T08:55:48.692Z,1020.61
2018-09-15T08:56:48.660Z,1020.63
2018-09-15T08:57:48.611Z,1020.62
2018-09-15T08:58:48.571Z,1020.63
2018-09-15T08:59:48.526Z,1020.70
2018-09-15T09:00:48.484Z,1020.68
2018-09-15T09:01:48.443Z,1020.72
2018-09-15T09:02:48.397Z,1020.74
2018-09-15T09:03:48.371Z,1020.73
2018-09-15T09:04:48.317Z,1020.71
2018-09-15T09:05:48.274Z,1020.71
2018-09-15T09:06:48.226Z,1020.71
2018-09-15T09:07:48.185Z,1020.73
2018-09-15T09:08:48.142Z,1020.68
2018-09-15T09:09:48.099Z,1020.71
2018-09-15T09:10:48.057Z,1020.73
2018-09-15T09:11:48.016Z,1020.70
2018-09-15T09:12:47.982Z,1020.74
2018-09-15T09:13:47.932Z,1020.71
2018-09-15T09:14:47.890Z,1020.74
2018-09-15T09:15:47.845Z,1020.71
2018-09-15T09:16:47.805Z,1020.76
2018-09-15T09:17:47.759Z,1020.75
2018-09-15T09:18:47.720Z,1020.82
2018-09-15T09:19:47.714Z,1020.82
2018-09-15T09:20:47.633Z,1020.84
2018-09-15T09:21:47.593Z,1020.88
2018-09-15T09:22:47.553Z,1020.87
2018-09-15T09:23:47.507Z,1020.90
2018-09-15T09:24:47.472Z,1020.89
2018-09-15T09:25:47.485Z,1020.85
2018-09-15T09:26:47.424Z,1020.87
2018-09-15T09:27:47.338Z,1020.88
2018-09-15T09:28:47.297Z,1020.91
2018-09-15T09:29:47.253Z,1020.89
2018-09-15T09:30:47.211Z,1020.90
2018-09-15T09:31:47.170Z,1020.91
2018-09-15T09:32:47.128Z,1020.89
2018-09-15T09:33:47.086Z,1020.90
2018-09-15T09:34:47.041Z,1020.89
2018-09-15T09:35:46.999Z,1020.94
2018-09-15T09:36:46.957Z,1020.94
2018-09-15T09:37:46.918Z,1020.93
2018-09-15T09:38:46.874Z,1020.91
2018-09-15T09:39:46.832Z,1020.83
2018-09-15T09:40:46.789Z,1020.83
2018-09-15T09:41:46.747Z,1020.84
2018-09-15T09:42:46.704Z,1020.90
2018-09-15T09:43:46.661Z,1020.94
2018-09-15T09:44:46.624Z,1020.86
2018-09-15T09:45:46.578Z,1020.87
2018-09-15T09:46:46.538Z,1020.90
2018-09-15T09:47:46.541Z,1020.89
2018-09-15T09:48:46.459Z,1020.86
2018-09-15T09:49:46.414Z,1020.81
2018-09-15T09:50:46.371Z,1020.78
2018-09-15T09:51:46.333Z,1020.81
2018-09-15T09:52:46.288Z,1020.81
2018-09-15T09:53:46.243Z,1020.80
2018-09-15T09:54:46.201Z,1020.78
2018-09-15T09:55:46.161Z,1020.80
2018-09-15T09:56:46.123Z,1020.82
2018-09-15T09:58:46.036Z,1020.77
2018-09-15T09:59:45.997Z,1020.80
2018-09-15T10:00:45.953Z,1020.79
2018-09-15T10:01:45.909Z,1020.82
2018-09-15T10:02:45.867Z,1020.85
2018-09-15T10:03:45.828Z,1020.81
2018-09-15T10:04:45.785Z,1020.78
2018-09-15T10:05:45.744Z,1020.83
2018-09-15T10:06:45.703Z,1020.84
2018-09-15T10:07:45.667Z,1020.86
2018-09-15T10:08:45.620Z,1020.83
2018-09-15T10:09:45.576Z,1020.89
2018-09-15T10:10:45.538Z,1020.89
2018-09-15T10:11:45.513Z,1020.87
2018-09-15T10:12:45.451Z,1020.90
2018-09-15T10:13:45.411Z,1020.92
2018-09-15T10:14:45.368Z,1020.87
2018-09-15T10:15:45.341Z,1020.86
2018-09-15T10:16:45.291Z,1020.82
2018-09-15T10:17:45.247Z,1020.81
2018-09-15T10:18:45.205Z,1020.87
2018-09-15T10:19:45.170Z,1020.82
2018-09-15T10:20:45.118Z,1020.84
2018-09-15T10:21:45.136Z,1020.80
2018-09-15T10:22:45.047Z,1020.72
2018-09-15T10:23:44.995Z,1020.70
2018-09-15T10:24:44.954Z,1020.71
2018-09-15T10:25:44.910Z,1020.70
2018-09-15T10:26:44.867Z,1020.71
2018-09-15T10:27:44.837Z,1020.74
2018-09-15T10:28:44.787Z,1020.75
2018-09-15T10:29:44.745Z,1020.76
2018-09-15T10:30:44.708Z,1020.74
2018-09-15T10:31:44.667Z,1020.82
2018-09-15T10:32:44.621Z,1020.85
2018-09-15T10:33:44.581Z,1020.84
2018-09-15T10:34:44.537Z,1020.79
2018-09-15T10:35:44.506Z,1020.78
2018-09-15T10:36:44.456Z,1020.80
2018-09-15T10:37:44.414Z,1020.82
2018-09-15T10:38:44.374Z,1020.81
2018-09-15T10:39:44.331Z,1020.86
2018-09-15T10:40:44.292Z,1020.87
2018-09-15T10:41:44.251Z,1020.86
2018-09-15T10:42:44.211Z,1020.84
2018-09-15T10:43:44.170Z,1020.86
2018-09-15T10:44:44.132Z,1020.80
2018-09-15T10:45:44.143Z,1020.77
2018-09-15T10:46:44.144Z,1020.80
2018-09-15T10:47:44.004Z,1020.80
2018-09-15T10:48:43.979Z,1020.84
2018-09-15T10:49:43.925Z,1020.84
2018-09-15T10:50:43.881Z,1020.81
2018-09-15T10:51:43.842Z,1020.79
2018-09-15T10:52:43.799Z,1020.82
2018-09-15T10:53:43.757Z,1020.77
2018-09-15T10:54:43.715Z,1020.76
2018-09-15T10:55:43.674Z,1020.76
2018-09-15T10:56:43.636Z,1020.78
2018-09-15T10:57:43.593Z,1020.80
2018-09-15T10:58:43.557Z,1020.79
2018-09-15T10:59:43.512Z,1020.80
2018-09-15T11:00:43.532Z,1020.84
2018-09-15T11:01:43.429Z,1020.82
2018-09-15T11:02:43.388Z,1020.83
2018-09-15T11:03:43.352Z,1020.80
2018-09-15T11:04:43.315Z,1020.81
2018-09-15T11:05:43.270Z,1020.81
2018-09-15T11:06:43.229Z,1020.80
2018-09-15T11:07:43.184Z,1020.78
2018-09-15T11:08:43.145Z,1020.77
2018-09-15T11:09:43.106Z,1020.72
2018-09-15T11:10:43.063Z,1020.75
2018-09-15T11:11:43.023Z,1020.75
2018-09-15T11:12:42.983Z,1020.77
2018-09-15T11:13:43.018Z,1020.78
2018-09-15T11:14:42.900Z,1020.72
2018-09-15T11:15:42.863Z,1020.75
2018-09-15T11:16:42.823Z,1020.73
2018-09-15T11:17:42.778Z,1020.76
2018-09-15T11:18:42.748Z,1020.75
2018-09-15T11:19:42.699Z,1020.75
2018-09-15T11:20:42.662Z,1020.72
2018-09-15T11:21:42.616Z,1020.73
2018-09-15T11:22:42.631Z,1020.70
2018-09-15T11:23:42.537Z,1020.64
2018-09-15T11:24:42.496Z,1020.61
2018-09-15T11:25:42.461Z,1020.63
2018-09-15T11:26:42.414Z,1020.67
2018-09-15T11:27:42.383Z,1020.66
2018-09-15T11:28:42.405Z,1020.71
2018-09-15T11:29:42.294Z,1020.75
2018-09-15T11:30:42.253Z,1020.73
2018-09-15T11:31:42.213Z,1020.72
2018-09-15T11:32:42.173Z,1020.77
2018-09-15T11:33:42.240Z,1020.73
2018-09-15T11:34:42.092Z,1020.87
2018-09-15T11:35:42.051Z,1020.75
2018-09-15T11:36:42.125Z,1020.76
2018-09-15T11:37:41.979Z,1020.83
2018-09-15T11:38:41.929Z,1020.77
2018-09-15T11:39:41.893Z,1020.78
2018-09-15T11:40:41.851Z,1020.74
2018-09-15T11:41:41.814Z,1020.74
2018-09-15T11:42:41.770Z,1020.77
2018-09-15T11:43:41.760Z,1020.80
2018-09-15T11:44:41.688Z,1020.76
2018-09-15T11:45:41.645Z,1020.77
2018-09-15T11:46:41.608Z,1020.79
2018-09-15T11:47:41.567Z,1020.77
2018-09-15T11:48:41.529Z,1020.77
2018-09-15T11:49:41.490Z,1020.72
2018-09-15T11:50:41.444Z,1020.75
2018-09-15T11:51:41.406Z,1020.72
2018-09-15T11:52:41.364Z,1020.73
2018-09-15T11:53:41.347Z,1020.75
2018-09-15T11:54:41.281Z,1020.74
2018-09-15T11:55:41.238Z,1020.78
2018-09-15T11:56:41.200Z,1020.80
2018-09-15T11:57:41.158Z,1020.78
2018-09-15T11:58:41.124Z,1020.80
2018-09-15T11:59:41.078Z,1020.83
2018-09-15T12:00:41.034Z,1020.82
2018-09-15T12:01:40.995Z,1020.77
2018-09-15T12:02:40.954Z,1020.69
2018-09-15T12:03:40.920Z,1020.76
2018-09-15T12:04:40.874Z,1020.77
2018-09-15T12:05:40.830Z,1020.80